Time;durP1;ratioP1;P1;durP2;ratioP2;P2;SDS_P1;SDS_P2;PMS_P1;PMS_P2;Temp;Humidity;BMP_temperature;BMP_pressure;BME280_temperature;BME280_humidity;BME280_pressure;Samples;Min_cycle;Max_cycle;Signal;HPM_P1;HPM_P2
2024/04/13 00:04:57;;;;;;;5.45;3.72;;;;;;;16.49;70.62;101390.22;11432969;25;20042;-67
2024/04/13 00:09:59;;;;;;;4.18;3.10;;;;;;;16.49;70.38;101389.38;11434582;25;20815;-69
2024/04/13 00:15:01;;;;;;;3.67;3.30;;;;;;;16.46;70.66;101378.91;11379770;25;20005;-68
2024/04/13 00:20:03;;;;;;;4.78;3.53;;;;;;;16.41;70.93;101393.59;11388405;25;20478;-70
2024/04/13 00:25:05;;;;;;;5.70;3.40;;;;;;;16.38;71.21;101387.66;11428227;25;20004;-68
2024/04/13 00:30:09;;;;;;;8.20;3.15;;;;;;;16.25;72.02;101383.31;11439078;25;20753;-68
2024/04/13 00:35:11;;;;;;;6.95;3.08;;;;;;;16.17;71.90;101382.28;11430609;25;20008;-68
2024/04/13 00:40:13;;;;;;;3.80;3.30;;;;;;;16.16;72.45;101384.13;11434284;25;20016;-69
2024/04/13 00:45:15;;;;;;;3.13;2.42;;;;;;;16.13;72.57;101384.38;11437346;25;20092;-70
2024/04/13 00:50:18;;;;;;;4.95;2.63;;;;;;;16.10;72.54;101381.97;11427213;25;20093;-68
2024/04/13 00:55:20;;;;;;;4.13;3.55;;;;;;;16.07;72.93;101390.28;11405573;25;20013;-69
2024/04/13 01:00:22;;;;;;;4.43;3.20;;;;;;;16.03;73.11;101388.84;11440948;25;20005;-71
2024/04/13 01:05:24;;;;;;;4.30;2.88;;;;;;;15.93;73.97;101398.66;11426448;25;20033;-68
2024/04/13 01:10:27;;;;;;;4.10;3.13;;;;;;;15.90;74.15;101389.91;11429365;25;20019;-69
2024/04/13 01:15:28;;;;;;;4.18;3.55;;;;;;;15.89;74.49;101390.88;11439236;25;20461;-67
2024/04/13 01:20:31;;;;;;;4.22;2.92;;;;;;;15.87;74.46;101395.53;11393865;25;20076;-66
2024/04/13 01:25:33;;;;;;;4.30;3.10;;;;;;;15.82;74.71;101387.03;11426735;25;20012;-67
2024/04/13 01:30:35;;;;;;;4.55;4.10;;;;;;;15.83;74.30;101377.97;11440778;25;20000;-69
2024/04/13 01:35:37;;;;;;;5.88;4.80;;;;;;;15.81;74.13;101385.31;11437283;25;20599;-70
2024/04/13 01:40:38;;;;;;;4.72;4.32;;;;;;;15.72;74.54;101386.06;11389883;25;19996;-67
2024/04/13 01:45:40;;;;;;;7.78;4.45;;;;;;;15.56;74.81;101363.19;11371845;25;19996;-70
2024/04/13 01:50:42;;;;;;;6.30;3.75;;;;;;;15.65;74.64;101395.59;11441678;25;20224;-68
2024/04/13 01:55:46;;;;;;;6.78;4.68;;;;;;;15.59;74.88;101391.59;11433068;25;20807;-69
2024/04/13 02:00:49;;;;;;;5.32;4.13;;;;;;;15.54;75.17;101386.63;11420060;25;20076;-68
2024/04/13 02:05:53;;;;;;;4.32;3.92;;;;;;;15.25;75.59;101353.31;11438242;25;20013;-71
2024/04/13 02:10:56;;;;;;;4.95;3.83;;;;;;;15.45;75.49;101390.06;11439660;25;20016;-68
2024/04/13 02:15:57;;;;;;;6.30;4.43;;;;;;;15.36;75.76;101385.47;11404596;25;20028;-69
2024/04/13 02:20:59;;;;;;;4.93;4.43;;;;;;;15.32;75.69;101386.69;11434408;25;20005;-68
2024/04/13 02:26:01;;;;;;;4.95;3.83;;;;;;;15.23;75.51;101384.78;11432177;25;20020;-70
2024/04/13 02:31:05;;;;;;;5.80;3.97;;;;;;;15.17;76.41;101386.13;11421574;25;20104;-66
2024/04/13 02:36:08;;;;;;;4.63;4.15;;;;;;;15.12;76.20;101367.75;11430624;25;20002;-69
2024/04/13 02:41:10;;;;;;;4.10;3.80;;;;;;;15.05;76.65;101371.06;11429252;25;20017;-69
2024/04/13 02:46:12;;;;;;;4.45;4.03;;;;;;;14.95;77.43;101365.56;11422853;25;20095;-71
2024/04/13 02:51:15;;;;;;;5.20;4.40;;;;;;;14.90;77.38;101362.44;11421210;25;20001;-68
2024/04/13 02:56:19;;;;;;;5.75;4.25;;;;;;;14.92;77.43;101365.81;11432684;25;20081;-70
2024/04/13 03:01:22;;;;;;;6.93;4.35;;;;;;;14.85;77.61;101365.50;11425269;25;20949;-69
2024/04/13 03:06:24;;;;;;;5.30;4.80;;;;;;;14.83;77.62;101357.56;11427681;25;20015;-68
2024/04/13 03:11:25;;;;;;;5.32;4.57;;;;;;;14.79;77.79;101369.50;11394120;25;20234;-70
2024/04/13 03:16:27;;;;;;;5.20;4.70;;;;;;;14.57;77.70;101330.16;11390130;25;20111;-70
2024/04/13 03:21:30;;;;;;;5.50;4.35;;;;;;;14.70;78.41;101366.69;11435490;25;20009;-69
2024/04/13 03:26:32;;;;;;;6.73;4.30;;;;;;;14.70;78.79;101364.03;11433516;25;20518;-70
2024/04/13 03:31:33;;;;;;;4.50;4.10;;;;;;;14.68;78.37;101364.16;11433922;25;20673;-68
2024/04/13 03:36:35;;;;;;;4.22;3.83;;;;;;;14.65;78.51;101361.72;11426807;25;19997;-66
2024/04/13 03:41:37;;;;;;;5.85;4.85;;;;;;;14.53;79.18;101338.56;11427777;25;20009;-68
2024/04/13 03:46:39;;;;;;;5.15;4.32;;;;;;;14.58;78.65;101347.09;11430460;25;20023;-66
2024/04/13 03:51:41;;;;;;;5.40;4.03;;;;;;;14.58;79.66;101355.13;11398178;25;19996;-68
2024/04/13 03:56:43;;;;;;;5.88;4.07;;;;;;;14.47;79.98;101359.53;11427065;25;22297;-68
2024/04/13 04:01:45;;;;;;;4.88;3.65;;;;;;;14.40;80.06;101339.53;11430458;25;20001;-68
2024/04/13 04:06:46;;;;;;;4.03;3.58;;;;;;;14.42;80.04;101353.66;11430413;25;20709;-69
2024/04/13 04:11:48;;;;;;;5.07;4.57;;;;;;;14.34;79.64;101323.97;11401769;25;20004;-67
2024/04/13 04:16:50;;;;;;;5.25;4.60;;;;;;;14.30;80.11;101336.72;11424842;25;20521;-69
2024/04/13 04:21:51;;;;;;;6.57;4.40;;;;;;;14.28;80.38;101336.00;11428728;25;20028;-68
2024/04/13 04:26:53;;;;;;;5.30;4.22;;;;;;;14.22;80.69;101335.66;11429972;25;20005;-69
2024/04/13 04:31:54;;;;;;;6.25;4.70;;;;;;;14.25;80.51;101346.97;11428811;25;19997;-70
2024/04/13 04:36:56;;;;;;;5.63;4.55;;;;;;;14.19;80.97;101341.25;11425527;25;20005;-69
2024/04/13 04:41:57;;;;;;;5.40;4.90;;;;;;;14.07;80.87;101335.88;11427231;25;20005;-68
2024/04/13 04:46:58;;;;;;;6.07;4.20;;;;;;;14.22;80.48;101357.09;11430866;25;20015;-70
2024/04/13 04:52:00;;;;;;;4.63;4.03;;;;;;;14.22;80.56;101354.41;11395136;25;20012;-68
2024/04/13 04:57:02;;;;;;;4.60;4.20;;;;;;;14.22;80.62;101357.91;11433726;25;20007;-69
2024/04/13 05:02:03;;;;;;;4.90;4.07;;;;;;;14.18;80.55;101356.44;11405467;25;20009;-70
2024/04/13 05:07:05;;;;;;;5.15;4.60;;;;;;;14.26;80.56;101370.09;11388386;25;20020;-66
2024/04/13 05:12:07;;;;;;;4.65;4.15;;;;;;;14.28;80.30;101369.97;11404258;25;20005;-66
2024/04/13 05:17:13;;;;;;;5.28;4.40;;;;;;;14.24;80.23;101373.88;11427888;25;20021;-65
2024/04/13 05:22:14;;;;;;;5.30;4.43;;;;;;;14.22;80.67;101379.34;11392605;25;20000;-69
2024/04/13 05:27:18;;;;;;;5.25;4.43;;;;;;;14.26;80.67;101374.59;11440196;25;20015;-67
2024/04/13 05:32:20;;;;;;;;;;;;;;;14.25;80.97;101378.25;11359373;25;20039;-66
2024/04/13 05:37:22;;;;;;;6.40;4.57;;;;;;;14.20;80.86;101372.41;11442043;25;21261;-69
2024/04/13 05:42:25;;;;;;;5.35;4.25;;;;;;;14.19;80.72;101371.56;11430558;25;20012;-68
2024/04/13 05:47:26;;;;;;;6.88;4.93;;;;;;;14.23;81.20;101388.22;11439267;25;20084;-69
2024/04/13 05:52:28;;;;;;;5.65;5.05;;;;;;;14.23;81.42;101385.53;11440637;25;20494;-68
2024/04/13 05:57:30;;;;;;;5.70;5.05;;;;;;;14.37;80.93;101404.06;11438222;25;20009;-69
2024/04/13 06:02:31;;;;;;;6.72;5.50;;;;;;;14.43;80.94;101403.59;11430413;25;20804;-67
2024/04/13 06:07:34;;;;;;;7.68;6.07;;;;;;;14.54;80.81;101409.94;11397118;25;20011;-67
2024/04/13 06:12:35;;;;;;;5.85;4.70;;;;;;;14.66;80.32;101409.81;11433254;25;20019;-65
2024/04/13 06:17:36;;;;;;;5.10;4.60;;;;;;;14.82;79.38;101409.47;11414904;25;20670;-66
2024/04/13 06:22:38;;;;;;;5.32;4.65;;;;;;;14.90;79.10;101408.00;11440612;25;20041;-66
2024/04/13 06:27:41;;;;;;;7.05;4.95;;;;;;;15.06;78.95;101416.53;11399772;25;20005;-69
2024/04/13 06:32:45;;;;;;;5.57;5.13;;;;;;;15.14;79.00;101418.56;11389856;25;20010;-70
2024/04/13 06:37:47;;;;;;;7.55;5.38;;;;;;;15.30;78.29;101418.19;11438719;25;20016;-69
2024/04/13 06:42:51;;;;;;;7.70;5.65;;;;;;;15.41;77.80;101407.41;11395816;25;20001;-67
2024/04/13 06:47:53;;;;;;;7.78;5.97;;;;;;;15.58;76.83;101410.50;11435587;25;20072;-61
2024/04/13 06:52:54;;;;;;;8.63;6.93;;;;;;;15.88;76.29;101413.34;11401356;25;20526;-61
2024/04/13 06:57:56;;;;;;;7.25;6.50;;;;;;;16.08;75.64;101405.44;11418812;25;20025;-63
2024/04/13 07:02:58;;;;;;;8.88;6.10;;;;;;;16.15;74.73;101371.66;11433903;25;20031;-60
2024/04/13 07:07:59;;;;;;;8.23;6.18;;;;;;;16.50;74.72;101391.06;11426384;25;20012;-60
2024/04/13 07:13:01;;;;;;;7.50;6.57;;;;;;;16.64;74.30;101395.25;11439199;25;20359;-60
2024/04/13 07:18:03;;;;;;;6.90;6.20;;;;;;;16.67;74.26;101389.59;11433127;25;20021;-60
2024/04/13 07:23:05;;;;;;;6.63;5.97;;;;;;;16.85;73.86;101393.34;11397701;25;20458;-61
2024/04/13 07:28:06;;;;;;;6.13;4.45;;;;;;;17.08;72.64;101382.38;11429823;25;20015;-62
2024/04/13 07:33:08;;;;;;;7.38;4.93;;;;;;;17.13;72.26;101364.00;11437078;25;20004;-61
2024/04/13 07:38:10;;;;;;;5.88;4.88;;;;;;;17.38;71.37;101369.81;11431631;25;20013;-60
2024/04/13 07:43:11;;;;;;;5.65;4.00;;;;;;;17.34;71.37;101368.41;11402922;25;20085;-61
2024/04/13 07:48:13;;;;;;;5.70;3.60;;;;;;;17.58;71.28;101376.91;11437897;25;20008;-59
2024/04/13 07:53:15;;;;;;;7.20;4.93;;;;;;;17.67;69.97;101362.59;11425487;25;20034;-60
2024/04/13 07:58:16;;;;;;;5.55;3.65;;;;;;;17.97;69.63;101366.13;11433528;25;20001;-61
2024/04/13 08:03:18;;;;;;;4.53;3.80;;;;;;;18.29;69.09;101364.91;11392322;25;20955;-61
2024/04/13 08:08:20;;;;;;;3.80;3.40;;;;;;;18.36;67.54;101357.94;11353300;25;20011;-60
2024/04/13 08:13:21;;;;;;;4.97;3.13;;;;;;;18.51;67.33;101354.75;11393528;25;20020;-61
2024/04/13 08:18:23;;;;;;;5.50;4.03;;;;;;;18.63;66.65;101356.25;11404742;25;20013;-62
2024/04/13 08:23:24;;;;;;;4.47;3.15;;;;;;;18.72;66.14;101349.97;11426603;25;20021;-60
2024/04/13 08:28:26;;;;;;;4.50;3.33;;;;;;;18.75;64.90;101359.63;11427847;25;20485;-60
2024/04/13 08:33:27;;;;;;;4.93;3.28;;;;;;;18.67;65.41;101351.41;11429512;25;20024;-61
2024/04/13 08:38:29;;;;;;;4.95;2.65;;;;;;;18.81;65.56;101326.66;11428753;25;20072;-61
2024/04/13 08:43:31;;;;;;;4.55;2.80;;;;;;;18.98;64.30;101327.69;11349599;25;20016;-61
2024/04/13 08:48:32;;;;;;;3.80;2.55;;;;;;;19.10;64.13;101338.28;11429154;25;20134;-60
2024/04/13 08:53:36;;;;;;;4.22;3.20;;;;;;;19.26;62.88;101333.03;11422005;25;20001;-60
2024/04/13 08:58:38;;;;;;;5.85;3.08;;;;;;;19.66;62.59;101334.38;11419474;25;20611;-60
2024/04/13 09:03:42;;;;;;;5.35;2.72;;;;;;;19.77;61.15;101323.38;11405502;25;20001;-62
2024/04/13 09:08:49;;;;;;;4.93;2.95;;;;;;;19.92;60.76;101328.19;11433232;25;20005;-61
2024/04/13 09:13:50;;;;;;;4.25;2.58;;;;;;;20.10;61.57;101314.59;11435378;25;20551;-62
2024/04/13 09:18:52;;;;;;;2.38;2.10;;;;;;;20.25;59.81;101313.00;11430602;25;20937;-61
2024/04/13 09:23:55;;;;;;;3.97;2.95;;;;;;;20.34;59.55;101313.03;11433382;25;20009;-61
2024/04/13 09:28:57;;;;;;;2.97;2.63;;;;;;;20.61;58.90;101311.97;11436600;25;20008;-62
2024/04/13 09:33:59;;;;;;;4.78;3.08;;;;;;;20.62;58.58;101289.31;11436668;25;20005;-62
2024/04/13 09:39:01;;;;;;;4.30;2.95;;;;;;;20.97;57.14;101309.06;11394206;25;20020;-62
2024/04/13 09:44:02;;;;;;;3.78;2.30;;;;;;;21.21;58.03;101310.94;11392394;25;20024;-60
2024/04/13 09:49:05;;;;;;;3.20;2.97;;;;;;;21.41;55.12;101299.78;11436821;25;20606;-61
2024/04/13 09:54:07;;;;;;;4.18;2.53;;;;;;;21.65;56.67;101290.84;11311069;25;19994;-61
2024/04/13 09:59:12;;;;;;;3.90;2.43;;;;;;;21.77;55.07;101259.66;11365456;25;20015;-61
2024/04/13 10:04:14;;;;;;;4.07;2.97;;;;;;;22.15;53.37;101284.28;11377737;25;20253;-63
2024/04/13 10:09:19;;;;;;;5.85;2.22;;;;;;;22.26;52.11;101280.34;11397287;25;20460;-61
2024/04/13 10:14:24;;;;;;;4.70;2.60;;;;;;;22.63;52.53;101267.16;11436521;25;20015;-61
2024/04/13 10:19:28;;;;;;;4.68;2.20;;;;;;;22.92;51.67;101272.75;11444264;25;21530;-60
2024/04/13 10:24:30;;;;;;;5.38;2.70;;;;;;;23.36;50.83;101273.97;11438895;25;20008;-62
2024/04/13 10:29:51;;;;;;;3.70;2.40;;;;;;;23.14;49.69;101264.78;11408765;25;20485;-61
2024/04/13 10:34:58;;;;;;;3.50;1.73;;;;;;;23.21;50.41;101263.06;11388245;25;20111;-60
2024/04/13 10:40:02;;;;;;;4.18;2.47;;;;;;;23.69;49.39;101251.03;11442544;25;20072;-61
2024/04/13 10:45:11;;;;;;;4.15;2.20;;;;;;;23.93;48.06;101230.94;11406610;25;20019;-62
2024/04/13 10:50:14;;;;;;;2.92;2.13;;;;;;;23.98;48.79;101229.34;11433886;25;20708;-61
2024/04/13 10:55:17;;;;;;;;;;;;;;;24.02;46.85;101224.38;11436741;25;20119;-61
2024/04/13 11:00:19;;;;;;;;;;;;;;;24.03;47.15;101219.78;11364935;25;20342;-61
2024/04/13 11:05:21;;;;;;;5.72;2.70;;;;;;;24.30;47.36;101221.78;11431459;25;19923;-62
2024/04/13 11:10:23;;;;;;;3.95;2.15;;;;;;;24.66;46.65;101212.81;11431614;25;20016;-61
2024/04/13 11:15:25;;;;;;;5.32;2.75;;;;;;;24.70;45.37;101211.38;11437735;25;20019;-62
2024/04/13 11:20:30;;;;;;;2.80;1.88;;;;;;;25.05;44.39;101195.16;11447697;25;20713;-61
2024/04/13 11:25:32;;;;;;;3.75;1.70;;;;;;;25.50;43.52;101197.63;11431681;25;20004;-61
2024/04/13 11:30:41;;;;;;;3.30;1.83;;;;;;;25.86;42.49;101187.56;11433718;25;20009;-61
2024/04/13 11:35:56;;;;;;;4.03;1.88;;;;;;;26.11;41.48;101169.66;11367817;25;20083;-60
2024/04/13 11:40:58;;;;;;;2.83;1.40;;;;;;;26.13;41.15;101149.53;11429466;25;20069;-61
2024/04/13 11:46:00;;;;;;;4.80;3.20;;;;;;;26.61;39.25;101160.34;11429253;25;20750;-61
2024/04/13 11:51:02;;;;;;;4.37;2.40;;;;;;;26.93;39.63;101149.69;11424075;25;20024;-63
2024/04/13 11:56:10;;;;;;;7.00;5.00;;;;;;;27.30;38.79;101139.13;11390983;25;20013;-63
2024/04/13 12:01:12;;;;;;;6.70;1.80;;;;;;;27.23;37.49;101114.53;11429528;25;21864;-62
2024/04/13 12:06:13;;;;;;;4.90;3.27;;;;;;;27.71;37.81;101112.56;11428524;25;20451;-63
2024/04/13 12:11:15;;;;;;;2.15;1.30;;;;;;;27.39;37.63;101098.78;11411418;25;20017;-62
2024/04/13 12:16:17;;;;;;;2.80;1.50;;;;;;;27.52;37.01;101107.78;11429160;25;20016;-62
2024/04/13 12:21:18;;;;;;;2.33;1.00;;;;;;;27.81;36.64;101097.34;11424204;25;20272;-62
2024/04/13 12:26:20;;;;;;;2.93;1.60;;;;;;;28.08;36.25;101089.03;11387482;25;20001;-61
2024/04/13 12:31:24;;;;;;;4.22;2.00;;;;;;;27.95;36.65;101089.09;11424959;25;20001;-62
2024/04/13 12:36:26;;;;;;;3.00;1.57;;;;;;;28.15;36.04;101070.69;11383259;25;20023;-60
2024/04/13 12:41:28;;;;;;;3.20;1.20;;;;;;;28.08;36.73;101055.38;11438283;25;20010;-61
2024/04/13 12:46:30;;;;;;;7.93;6.20;;;;;;;28.06;35.71;101052.00;11397953;25;20010;-62
2024/04/13 12:51:32;;;;;;;;;;;;;;;27.87;35.35;101041.78;11428312;25;20715;-61
2024/04/13 12:56:34;;;;;;;1.85;0.95;;;;;;;27.68;35.17;101026.31;11428815;25;19930;-62
2024/04/13 13:01:35;;;;;;;1.45;0.70;;;;;;;27.44;35.81;101014.22;11387855;25;20147;-61
2024/04/13 13:06:37;;;;;;;3.33;2.33;;;;;;;27.27;35.05;101005.66;11424475;25;20032;-61
2024/04/13 13:11:39;;;;;;;2.20;1.00;;;;;;;27.38;34.93;101013.19;11434396;25;20005;-61
2024/04/13 13:16:44;;;;;;;1.70;0.93;;;;;;;27.41;35.06;100988.16;11432090;25;20083;-62
2024/04/13 13:21:46;;;;;;;3.70;1.05;;;;;;;27.38;34.97;100979.56;11390197;25;20015;-60
2024/04/13 13:26:48;;;;;;;3.78;1.13;;;;;;;27.12;33.32;100971.22;11436679;25;20059;-62
2024/04/13 13:31:51;;;;;;;0.75;0.40;;;;;;;26.92;34.55;100970.47;11429834;25;20017;-61
2024/04/13 13:36:53;;;;;;;1.85;0.50;;;;;;;26.78;34.54;100953.25;11432391;25;20755;-61
2024/04/13 13:41:54;;;;;;;2.35;0.50;;;;;;;26.56;34.79;100939.84;11428620;25;20020;-62
2024/04/13 13:46:56;;;;;;;2.17;1.05;;;;;;;26.48;34.89;100933.75;11384344;25;20728;-62
2024/04/13 13:51:57;;;;;;;1.55;0.38;;;;;;;26.66;34.62;100920.28;11441227;25;20697;-62
2024/04/13 13:56:59;;;;;;;2.40;0.40;;;;;;;26.69;35.21;100919.06;11426487;25;20438;-61
2024/04/13 14:02:00;;;;;;;2.70;0.98;;;;;;;26.77;35.33;100914.19;11431542;25;20012;-61
2024/04/13 14:07:03;;;;;;;1.90;0.90;;;;;;;26.56;35.07;100914.44;11388220;25;20023;-62
2024/04/13 14:12:05;;;;;;;1.48;0.40;;;;;;;26.52;35.79;100897.63;11404748;25;20072;-60
2024/04/13 14:17:07;;;;;;;2.53;0.70;;;;;;;26.20;35.72;100881.13;11400703;25;20027;-62
2024/04/13 14:22:09;;;;;;;1.20;0.52;;;;;;;26.13;36.46;100876.72;11428568;25;20096;-62
2024/04/13 14:27:10;;;;;;;2.20;1.10;;;;;;;26.10;36.88;100878.81;11363978;25;20303;-61
2024/04/13 14:32:13;;;;;;;3.67;0.95;;;;;;;25.96;37.33;100871.66;11418182;25;20303;-61
2024/04/13 14:37:16;;;;;;;2.15;1.10;;;;;;;25.99;37.51;100871.28;11433263;25;20005;-62
2024/04/13 14:42:18;;;;;;;1.83;1.10;;;;;;;25.85;37.50;100855.94;11372197;25;20080;-62
2024/04/13 14:47:20;;;;;;;5.57;1.52;;;;;;;25.85;37.51;100854.06;11419488;25;20001;-61
2024/04/13 14:52:21;;;;;;;5.88;1.00;;;;;;;25.66;37.93;100854.91;11395128;25;20005;-62
2024/04/13 14:57:24;;;;;;;2.10;1.10;;;;;;;25.43;38.42;100852.53;11437345;25;20088;-60
2024/04/13 15:02:26;;;;;;;1.00;0.60;;;;;;;25.21;39.11;100847.25;11424395;25;20812;-60
2024/04/13 15:07:28;;;;;;;2.60;1.10;;;;;;;25.11;39.76;100831.28;11409697;25;20005;-61
2024/04/13 15:12:29;;;;;;;1.77;0.93;;;;;;;25.15;40.03;100831.72;11411987;25;20000;-61
2024/04/13 15:17:33;;;;;;;2.33;1.38;;;;;;;25.08;40.16;100806.34;11426407;25;20076;-62
2024/04/13 15:22:34;;;;;;;2.60;1.25;;;;;;;24.95;40.75;100805.28;11430353;25;20000;-61
2024/04/13 15:27:36;;;;;;;2.15;0.90;;;;;;;24.55;41.49;100769.72;11427699;25;20005;-61
2024/04/13 15:32:37;;;;;;;2.20;1.13;;;;;;;24.62;41.71;100778.78;11400207;25;20007;-60
2024/04/13 15:37:40;;;;;;;1.40;1.20;;;;;;;24.41;42.63;100776.13;11433079;25;20016;-59
2024/04/13 15:42:41;;;;;;;2.45;1.50;;;;;;;24.39;42.92;100772.78;11427021;25;20084;-62
2024/04/13 15:47:43;;;;;;;2.67;1.00;;;;;;;24.28;42.97;100766.03;11380446;25;20064;-61
2024/04/13 15:52:47;;;;;;;2.03;1.35;;;;;;;24.26;43.41;100744.50;11379474;25;20001;-62
2024/04/13 15:57:49;;;;;;;3.22;1.45;;;;;;;24.28;43.67;100744.28;11438248;25;20016;-62
2024/04/13 16:02:51;;;;;;;3.13;1.38;;;;;;;24.25;43.55;100741.97;11433430;25;20015;-62
2024/04/13 16:07:53;;;;;;;2.80;1.73;;;;;;;24.19;43.95;100730.00;11404175;25;20069;-62
2024/04/13 16:12:57;;;;;;;3.90;1.63;;;;;;;24.00;44.00;100718.84;11430780;25;20005;-61
2024/04/13 16:17:58;;;;;;;3.50;1.75;;;;;;;23.93;44.96;100717.97;11425374;25;20013;-61
2024/04/13 16:23:00;;;;;;;3.47;1.60;;;;;;;23.89;45.27;100718.56;11433167;25;20656;-61
2024/04/13 16:28:02;;;;;;;4.82;2.05;;;;;;;23.88;45.40;100716.88;11427380;25;20439;-60
2024/04/13 16:33:08;;;;;;;5.72;1.65;;;;;;;23.86;45.62;100702.66;11379952;25;20057;-62
2024/04/13 16:38:09;;;;;;;2.67;1.95;;;;;;;23.72;45.86;100699.81;11389077;25;20016;-62
2024/04/13 16:43:10;;;;;;;3.95;2.10;;;;;;;23.68;46.13;100687.66;11401060;25;20541;-62
2024/04/13 16:48:12;;;;;;;4.90;2.45;;;;;;;23.65;46.51;100691.59;11422176;25;21085;-61
2024/04/13 16:53:15;;;;;;;2.30;1.90;;;;;;;23.58;46.94;100696.16;11395733;25;20032;-62
2024/04/13 16:58:16;;;;;;;3.97;2.05;;;;;;;23.51;47.13;100679.00;11388005;25;20005;-62
2024/04/13 17:03:18;;;;;;;5.63;3.38;;;;;;;23.52;47.53;100675.22;11429388;25;20112;-61
2024/04/13 17:08:19;;;;;;;2.58;2.08;;;;;;;23.51;47.49;100662.69;11434951;25;20767;-61
2024/04/13 17:13:21;;;;;;;3.97;2.40;;;;;;;23.33;47.52;100648.75;11384074;25;20021;-62
2024/04/13 17:18:23;;;;;;;3.10;2.10;;;;;;;23.28;47.76;100657.50;11422186;25;20013;-62
2024/04/13 17:23:25;;;;;;;5.10;2.00;;;;;;;23.19;47.74;100648.66;11434942;25;20708;-62
2024/04/13 17:28:27;;;;;;;2.88;2.33;;;;;;;23.14;48.17;100634.84;11411513;25;20006;-60
2024/04/13 17:33:28;;;;;;;3.35;2.28;;;;;;;23.09;47.96;100631.84;11394292;25;20001;-61
2024/04/13 17:38:30;;;;;;;2.25;1.80;;;;;;;23.01;48.76;100613.81;11403233;25;20005;-62
2024/04/13 17:43:32;;;;;;;4.40;2.00;;;;;;;22.92;48.83;100604.13;11437997;25;20537;-61
2024/04/13 17:48:34;;;;;;;3.65;2.22;;;;;;;22.86;48.78;100604.94;11400828;25;20060;-62
2024/04/13 17:53:36;;;;;;;3.78;1.50;;;;;;;22.77;49.16;100594.22;11405473;25;20024;-61
2024/04/13 17:58:38;;;;;;;2.10;1.60;;;;;;;22.73;49.71;100586.66;11438760;25;20700;-61
2024/04/13 18:03:40;;;;;;;3.55;2.15;;;;;;;22.68;49.47;100597.25;11436808;25;20068;-61
2024/04/13 18:08:43;;;;;;;5.23;2.50;;;;;;;22.60;49.70;100585.50;11434525;25;20013;-59
2024/04/13 18:13:46;;;;;;;5.43;2.25;;;;;;;22.56;49.90;100591.50;11439802;25;20001;-61
2024/04/13 18:18:50;;;;;;;4.60;2.10;;;;;;;22.51;50.05;100593.97;11432396;25;20127;-59
2024/04/13 18:23:52;;;;;;;3.70;2.47;;;;;;;22.45;50.58;100595.59;11426280;25;20556;-60
2024/04/13 18:28:54;;;;;;;4.40;2.60;;;;;;;22.42;50.62;100599.50;11406139;25;20120;-61
2024/04/13 18:33:55;;;;;;;4.13;3.20;;;;;;;22.34;50.96;100596.06;11403983;25;20005;-63
2024/04/13 18:38:57;;;;;;;5.60;3.28;;;;;;;22.27;51.38;100590.56;11436079;25;20068;-63
2024/04/13 18:43:59;;;;;;;5.80;3.08;;;;;;;22.22;51.34;100599.28;11436858;25;20068;-62
2024/04/13 18:49:00;;;;;;;4.97;3.83;;;;;;;22.14;51.73;100596.66;11434317;25;20020;-61
2024/04/13 18:54:03;;;;;;;5.45;4.38;;;;;;;22.06;52.12;100594.91;11422230;25;20181;-61
2024/04/13 18:59:05;;;;;;;6.73;5.80;;;;;;;22.01;52.14;100588.41;11436597;25;20080;-61
2024/04/13 19:04:08;;;;;;;7.97;5.68;;;;;;;21.95;52.28;100592.72;11393897;25;20012;-62
2024/04/13 19:09:10;;;;;;;;;;;;;;;21.88;52.74;100598.03;11431745;25;20033;-62
2024/04/13 19:14:13;;;;;;;5.43;4.03;;;;;;;21.83;52.85;100599.66;11361808;25;19923;-62
2024/04/13 19:19:15;;;;;;;5.40;3.70;;;;;;;21.74;52.75;100598.91;11426496;25;20005;-60
2024/04/13 19:24:19;;;;;;;5.63;3.38;;;;;;;21.60;52.91;100595.16;11430178;25;20687;-61
2024/04/13 19:29:23;;;;;;;5.10;3.00;;;;;;;21.61;52.93;100605.00;11413859;25;20036;-59
2024/04/13 19:34:25;;;;;;;4.00;2.88;;;;;;;21.51;52.92;100599.88;11432494;25;20109;-61
2024/04/13 19:39:27;;;;;;;3.33;2.28;;;;;;;21.48;53.41;100599.34;11434852;25;20080;-61
2024/04/13 19:44:28;;;;;;;2.78;2.38;;;;;;;21.42;53.52;100600.09;11437365;25;20028;-62
2024/04/13 19:49:30;;;;;;;5.60;2.35;;;;;;;21.39;53.68;100598.59;11394212;25;20001;-62
2024/04/13 19:54:32;;;;;;;3.53;2.65;;;;;;;21.34;53.75;100590.22;11363938;25;20008;-62
2024/04/13 19:59:33;;;;;;;6.35;2.53;;;;;;;21.23;54.56;100594.22;11410590;25;20012;-62
2024/04/13 20:04:35;;;;;;;4.10;2.40;;;;;;;21.19;54.66;100595.59;11427370;25;20017;-64
2024/04/13 20:09:38;;;;;;;3.30;2.40;;;;;;;21.10;54.38;100589.44;11436533;25;20048;-62
2024/04/13 20:14:42;;;;;;;4.22;2.97;;;;;;;21.07;54.70;100583.56;11422702;25;20032;-62
2024/04/13 20:19:48;;;;;;;3.13;2.33;;;;;;;20.99;55.20;100579.91;11382703;25;20087;-62
2024/04/13 20:24:49;;;;;;;2.67;2.33;;;;;;;20.93;55.57;100580.63;11433609;25;20062;-61
2024/04/13 20:29:51;;;;;;;3.90;2.63;;;;;;;20.88;55.57;100590.31;11413740;25;20024;-62
2024/04/13 20:34:58;;;;;;;4.90;2.47;;;;;;;20.83;55.54;100588.16;11423221;25;20096;-62
2024/04/13 20:39:59;;;;;;;5.15;2.63;;;;;;;20.78;55.17;100591.41;11429778;25;20403;-61
2024/04/13 20:45:02;;;;;;;3.85;2.38;;;;;;;20.76;55.25;100582.66;11421568;25;20005;-61
2024/04/13 20:50:04;;;;;;;4.37;2.60;;;;;;;20.70;55.02;100583.38;11396941;25;20004;-61
2024/04/13 20:55:08;;;;;;;3.85;2.08;;;;;;;20.64;54.86;100584.06;11377107;25;20027;-61
2024/04/13 21:00:11;;;;;;;3.42;1.90;;;;;;;20.61;55.45;100579.88;11438392;25;20099;-61
2024/04/13 21:05:13;;;;;;;3.50;2.33;;;;;;;20.55;55.31;100585.16;11434625;25;20035;-61
2024/04/13 21:10:14;;;;;;;2.50;1.60;;;;;;;20.54;55.48;100589.72;11391940;25;20009;-61
2024/04/13 21:15:16;;;;;;;4.07;1.90;;;;;;;20.52;55.27;100583.63;11428365;25;20016;-61
2024/04/13 21:20:17;;;;;;;3.50;2.28;;;;;;;20.47;55.17;100586.88;11408066;25;20037;-63
2024/04/13 21:25:19;;;;;;;4.32;2.33;;;;;;;20.43;54.83;100577.47;11430257;25;20004;-61
2024/04/13 21:30:22;;;;;;;3.20;2.05;;;;;;;20.38;54.83;100574.47;11434100;25;20138;-62
2024/04/13 21:35:24;;;;;;;4.05;2.70;;;;;;;20.30;54.90;100569.13;11435000;25;20283;-61
2024/04/13 21:40:26;;;;;;;2.72;2.10;;;;;;;20.23;55.02;100571.69;11428972;25;20116;-61
2024/04/13 21:45:27;;;;;;;3.55;2.47;;;;;;;20.19;55.48;100574.94;11433558;25;20049;-62
2024/04/13 21:50:29;;;;;;;2.72;1.75;;;;;;;20.19;55.49;100572.22;11424102;25;20570;-61
2024/04/13 21:55:31;;;;;;;3.88;2.38;;;;;;;19.97;55.68;100547.72;11425655;25;20004;-62
2024/04/13 22:00:32;;;;;;;4.20;2.53;;;;;;;20.07;56.05;100566.38;11424082;25;21814;-62
2024/04/13 22:05:34;;;;;;;4.38;2.45;;;;;;;20.02;56.49;100557.97;11431272;25;20084;-62
2024/04/13 22:10:36;;;;;;;5.78;2.40;;;;;;;20.01;56.44;100567.09;11411039;25;20003;-61
2024/04/13 22:15:37;;;;;;;2.55;2.35;;;;;;;19.95;56.59;100558.69;11427898;25;20053;-61
2024/04/13 22:20:39;;;;;;;3.30;2.13;;;;;;;19.93;56.63;100566.13;11428320;25;20024;-61
2024/04/13 22:25:43;;;;;;;2.22;1.80;;;;;;;19.90;57.48;100557.53;11427161;25;20571;-60
2024/04/13 22:30:44;;;;;;;3.20;2.38;;;;;;;19.82;57.08;100549.50;11429354;25;20051;-61
2024/04/13 22:35:46;;;;;;;2.88;2.28;;;;;;;19.87;56.78;100561.44;11400015;25;20001;-61
2024/04/13 22:40:47;;;;;;;3.78;2.50;;;;;;;19.85;56.89;100559.94;11410145;25;20000;-62
2024/04/13 22:45:49;;;;;;;3.47;2.42;;;;;;;19.81;57.24;100561.31;11391763;25;20380;-60
2024/04/13 22:50:51;;;;;;;4.00;2.65;;;;;;;19.79;57.67;100558.78;11409748;25;20004;-60
2024/04/13 22:55:53;;;;;;;2.95;2.35;;;;;;;19.73;57.23;100543.25;11428876;25;20005;-62
2024/04/13 23:00:55;;;;;;;3.80;2.90;;;;;;;19.78;57.86;100555.22;11414986;25;20012;-61
2024/04/13 23:05:59;;;;;;;5.35;2.95;;;;;;;19.78;57.75;100560.63;11432705;25;20019;-61
2024/04/13 23:11:00;;;;;;;3.97;2.67;;;;;;;19.74;58.06;100556.59;11417187;25;20093;-61
2024/04/13 23:16:02;;;;;;;3.67;2.72;;;;;;;19.74;58.06;100551.19;11427926;25;20191;-63